Time;durP1;ratioP1;P1;durP2;ratioP2;P2;SDS_P1;SDS_P2;PMS_P1;PMS_P2;Temp;Humidity;BMP_temperature;BMP_pressure;BME280_temperature;BME280_humidity;BME280_pressure;Samples;Min_cycle;Max_cycle;Signal;HPM_P1;HPM_P2
2024/02/11 00:01:54;;;;;;;7.13;3.80;;;11.80;99.90;;;;;;4142678;28;20026;-61
2024/02/11 00:03:55;;;;;;;6.85;4.18;;;11.80;99.90;;;;;;4144073;28;20486;-61
2024/02/11 00:05:56;;;;;;;5.20;4.00;;;11.80;99.90;;;;;;4142220;28;20049;-61
2024/02/11 00:07:56;;;;;;;5.10;3.92;;;11.70;99.90;;;;;;4143103;28;20038;-61
2024/02/11 00:09:59;;;;;;;5.70;3.45;;;11.70;99.90;;;;;;4142752;28;20135;-61
2024/02/11 00:12:00;;;;;;;5.20;3.75;;;11.70;99.90;;;;;;4144102;28;20045;-61
2024/02/11 00:14:00;;;;;;;5.93;3.92;;;11.70;99.90;;;;;;4148777;28;20033;-61
2024/02/11 00:16:01;;;;;;;6.25;4.25;;;11.70;99.90;;;;;;4142690;28;20054;-61
2024/02/11 00:18:02;;;;;;;6.40;4.45;;;11.70;99.90;;;;;;4143228;28;20026;-62
2024/02/11 00:20:05;;;;;;;5.43;4.10;;;11.70;99.90;;;;;;4145304;28;20088;-62
2024/02/11 00:22:05;;;;;;;5.18;3.70;;;11.70;99.90;;;;;;4144006;28;20037;-61
2024/02/11 00:24:06;;;;;;;6.75;4.20;;;11.70;99.90;;;;;;4143575;28;20380;-61
2024/02/11 00:26:07;;;;;;;9.18;5.00;;;11.70;99.90;;;;;;4144298;28;20486;-61
2024/02/11 00:28:10;;;;;;;7.10;4.57;;;11.70;99.90;;;;;;4144193;28;20439;-61
2024/02/11 00:30:11;;;;;;;6.90;4.10;;;11.80;99.90;;;;;;4141209;28;20115;-63
2024/02/11 00:32:12;;;;;;;7.28;4.50;;;11.80;99.90;;;;;;4146745;28;20038;-62
2024/02/11 00:34:14;;;;;;;5.55;3.83;;;11.80;99.90;;;;;;4145266;28;20084;-62
2024/02/11 00:36:16;;;;;;;6.72;4.65;;;11.80;99.90;;;;;;4143616;28;20490;-61
2024/02/11 00:38:17;;;;;;;6.72;4.22;;;11.80;99.90;;;;;;4140187;28;20388;-61
2024/02/11 00:40:19;;;;;;;6.55;3.92;;;11.80;99.90;;;;;;4140186;28;20402;-61
2024/02/11 00:42:20;;;;;;;4.80;3.88;;;11.90;99.90;;;;;;4142854;28;20500;-60
2024/02/11 00:44:21;;;;;;;6.90;3.88;;;11.80;99.90;;;;;;4141623;28;20077;-61
2024/02/11 00:46:22;;;;;;;6.88;4.57;;;11.90;99.90;;;;;;4141511;28;20034;-61
2024/02/11 00:48:23;;;;;;;6.82;4.18;;;11.90;99.90;;;;;;4142665;28;20044;-61
2024/02/11 00:50:24;;;;;;;7.82;4.95;;;11.80;99.90;;;;;;4141188;28;20458;-61
2024/02/11 00:52:24;;;;;;;6.28;4.60;;;11.80;99.90;;;;;;4145709;28;20038;-61
2024/02/11 00:54:25;;;;;;;7.35;4.50;;;11.80;99.90;;;;;;4142996;28;20034;-61
2024/02/11 00:56:26;;;;;;;7.65;4.80;;;11.80;99.90;;;;;;4142335;28;20057;-61
2024/02/11 00:58:26;;;;;;;7.60;4.75;;;11.80;99.90;;;;;;4143121;28;20096;-67
2024/02/11 01:00:27;;;;;;;8.05;4.97;;;11.90;99.90;;;;;;4142120;28;20034;-67
2024/02/11 01:02:29;;;;;;;6.85;4.75;;;11.80;99.90;;;;;;4142863;28;20505;-67
2024/02/11 01:04:30;;;;;;;7.47;4.78;;;11.90;99.90;;;;;;4141000;28;20462;-67
2024/02/11 01:06:31;;;;;;;7.50;4.68;;;11.90;99.90;;;;;;4141948;28;20037;-67
2024/02/11 01:08:31;;;;;;;8.85;5.65;;;11.80;99.90;;;;;;4145813;28;20049;-67
2024/02/11 01:10:32;;;;;;;7.63;5.43;;;11.90;99.90;;;;;;4143040;28;20415;-67
2024/02/11 01:12:32;;;;;;;7.97;5.50;;;11.80;99.90;;;;;;4142997;28;20033;-67
2024/02/11 01:14:33;;;;;;;7.07;5.22;;;11.80;99.90;;;;;;4143060;28;20079;-67
2024/02/11 01:16:35;;;;;;;10.55;5.47;;;11.80;99.90;;;;;;4142715;28;20890;-67
2024/02/11 01:18:36;;;;;;;7.47;5.20;;;11.80;99.90;;;;;;4145444;28;20376;-67
2024/02/11 01:20:36;;;;;;;8.82;5.32;;;11.80;99.90;;;;;;4140773;28;20088;-67
2024/02/11 01:22:38;;;;;;;7.30;4.88;;;11.70;99.90;;;;;;4146109;28;20382;-67
2024/02/11 01:24:39;;;;;;;11.13;5.35;;;11.70;99.90;;;;;;4146077;28;20022;-67
2024/02/11 01:26:40;;;;;;;7.82;4.90;;;11.70;99.90;;;;;;4145491;28;20053;-67
2024/02/11 01:28:40;;;;;;;8.80;5.47;;;11.70;99.90;;;;;;4144147;28;20038;-68
2024/02/11 01:30:41;;;;;;;6.80;5.20;;;11.80;99.90;;;;;;4144409;28;20355;-68
2024/02/11 01:32:41;;;;;;;10.23;5.97;;;11.80;99.90;;;;;;4146383;28;20030;-69
2024/02/11 01:34:42;;;;;;;9.35;5.15;;;11.80;99.90;;;;;;4145916;28;20027;-68
2024/02/11 01:36:45;;;;;;;10.30;5.60;;;11.80;99.90;;;;;;4145986;28;20669;-68
2024/02/11 01:38:46;;;;;;;9.13;5.35;;;11.80;99.90;;;;;;4143828;28;20046;-68
2024/02/11 01:40:46;;;;;;;8.73;5.70;;;11.80;99.90;;;;;;4146777;28;20034;-68
2024/02/11 01:42:47;;;;;;;6.70;4.70;;;11.80;99.90;;;;;;4146210;28;20046;-68
2024/02/11 01:44:48;;;;;;;6.47;5.00;;;11.80;99.90;;;;;;4146005;28;20176;-68
2024/02/11 01:46:49;;;;;;;6.70;4.90;;;11.80;99.90;;;;;;4147778;28;20093;-68
2024/02/11 01:48:50;;;;;;;9.43;5.35;;;11.80;99.90;;;;;;4144824;28;20042;-68
2024/02/11 01:50:52;;;;;;;8.55;5.15;;;11.80;99.90;;;;;;4143641;28;20046;-68
2024/02/11 01:52:57;;;;;;;7.45;4.57;;;11.80;99.90;;;;;;4144350;28;20045;-68
2024/02/11 01:54:59;;;;;;;7.70;4.85;;;11.80;99.90;;;;;;4147027;28;20517;-68
2024/02/11 01:57:00;;;;;;;6.20;4.50;;;11.80;99.90;;;;;;4145068;28;20125;-68
2024/02/11 01:59:02;;;;;;;6.65;4.85;;;11.80;99.90;;;;;;4144402;28;20041;-68
2024/02/11 02:01:04;;;;;;;8.32;5.20;;;11.80;99.90;;;;;;4143972;28;20042;-68
2024/02/11 02:03:07;;;;;;;7.47;4.72;;;11.80;99.90;;;;;;4152663;28;20053;-68
2024/02/11 02:05:08;;;;;;;7.00;4.93;;;11.80;99.90;;;;;;4145220;28;20103;-69
2024/02/11 02:07:09;;;;;;;6.95;4.85;;;11.80;99.90;;;;;;4147021;28;20038;-68
2024/02/11 02:09:11;;;;;;;7.95;4.93;;;11.80;99.90;;;;;;4144374;28;20038;-72
2024/02/11 02:11:11;;;;;;;7.13;4.85;;;11.80;99.90;;;;;;4146610;28;20045;-70
2024/02/11 02:13:12;;;;;;;10.13;5.57;;;11.80;99.90;;;;;;4149124;28;20045;-70
2024/02/11 02:15:13;;;;;;;6.07;4.50;;;11.80;99.90;;;;;;4144511;28;20034;-72
2024/02/11 02:17:13;;;;;;;10.90;5.85;;;11.80;99.90;;;;;;4149351;28;20061;-71
2024/02/11 02:19:14;;;;;;;7.93;5.20;;;11.80;99.90;;;;;;4144918;28;20418;-72
2024/02/11 02:21:18;;;;;;;6.20;4.82;;;11.80;99.90;;;;;;4142602;28;20026;-71
2024/02/11 02:23:19;;;;;;;5.72;3.97;;;11.80;99.90;;;;;;4149054;28;20034;-72
2024/02/11 02:25:19;;;;;;;9.85;4.38;;;11.80;99.90;;;;;;4145087;28;20409;-72
2024/02/11 02:27:20;;;;;;;7.60;5.07;;;11.80;99.90;;;;;;4145244;28;20037;-72
2024/02/11 02:29:21;;;;;;;6.28;4.07;;;11.80;99.90;;;;;;4144294;28;20056;-72
2024/02/11 02:31:22;;;;;;;7.85;5.25;;;11.80;99.90;;;;;;4146319;28;20486;-72
2024/02/11 02:33:22;;;;;;;6.25;4.28;;;11.80;99.90;;;;;;4145900;28;20095;-72
2024/02/11 02:35:23;;;;;;;8.32;5.07;;;11.80;99.90;;;;;;4144168;28;20045;-72
2024/02/11 02:37:23;;;;;;;6.13;4.60;;;11.80;99.90;;;;;;4143736;28;20040;-72
2024/02/11 02:39:24;;;;;;;7.13;4.60;;;11.80;99.90;;;;;;4144956;28;20042;-67
2024/02/11 02:41:25;;;;;;;6.40;4.45;;;11.90;99.90;;;;;;4144537;28;20367;-67
2024/02/11 02:43:26;;;;;;;6.75;4.10;;;11.80;99.90;;;;;;4147720;28;20108;-68
2024/02/11 02:45:26;;;;;;;11.00;4.85;;;11.80;99.90;;;;;;4143843;28;20554;-67
2024/02/11 02:47:27;;;;;;;7.75;5.13;;;11.80;99.90;;;;;;4144832;28;20509;-67
2024/02/11 02:49:27;;;;;;;8.10;4.97;;;11.80;99.90;;;;;;4144221;28;20109;-67
2024/02/11 02:51:28;;;;;;;7.60;5.10;;;11.80;99.90;;;;;;4139837;28;20033;-67
2024/02/11 02:53:29;;;;;;;8.45;4.57;;;11.80;99.90;;;;;;4145682;28;20066;-67
2024/02/11 02:55:29;;;;;;;9.32;4.97;;;11.70;99.90;;;;;;4144026;28;20021;-67
2024/02/11 02:57:30;;;;;;;6.18;4.65;;;11.70;99.90;;;;;;4144719;28;20467;-67
2024/02/11 02:59:31;;;;;;;9.25;5.35;;;11.70;99.90;;;;;;4144816;28;20064;-67
2024/02/11 03:01:32;;;;;;;6.82;4.78;;;11.70;99.90;;;;;;4144638;28;20128;-68
2024/02/11 03:03:32;;;;;;;6.90;4.60;;;11.70;99.90;;;;;;4144747;28;20042;-68
2024/02/11 03:05:37;;;;;;;6.80;4.20;;;11.70;99.90;;;;;;4143582;28;20526;-67
2024/02/11 03:07:40;;;;;;;6.78;4.60;;;11.60;99.90;;;;;;4142870;28;20478;-67
2024/02/11 03:09:40;;;;;;;6.22;4.30;;;11.60;99.90;;;;;;4143155;28;20671;-67
2024/02/11 03:11:41;;;;;;;5.50;4.10;;;11.60;99.90;;;;;;4142390;28;20064;-67
2024/02/11 03:13:43;;;;;;;6.28;4.45;;;11.60;99.90;;;;;;4143492;28;20030;-68
2024/02/11 03:15:44;;;;;;;6.63;4.20;;;11.60;99.90;;;;;;4143954;28;20084;-67
2024/02/11 03:17:47;;;;;;;6.28;3.97;;;11.60;99.90;;;;;;4141393;28;20037;-61
2024/02/11 03:19:48;;;;;;;6.68;4.15;;;11.50;99.90;;;;;;4143786;28;20064;-68
2024/02/11 03:21:49;;;;;;;6.53;3.83;;;11.50;99.90;;;;;;4143178;28;20129;-67
2024/02/11 03:23:49;;;;;;;5.68;3.88;;;11.50;99.90;;;;;;4145423;28;20043;-67
2024/02/11 03:25:50;;;;;;;5.35;3.92;;;11.50;99.90;;;;;;4142108;28;20124;-68
2024/02/11 03:27:54;;;;;;;8.27;4.30;;;11.50;99.90;;;;;;4142570;28;20037;-67
2024/02/11 03:29:54;;;;;;;6.75;4.20;;;11.50;99.90;;;;;;4139011;28;20490;-68
2024/02/11 03:31:55;;;;;;;5.35;3.67;;;11.40;99.90;;;;;;4139317;28;20038;-68
2024/02/11 03:33:56;;;;;;;5.85;4.18;;;11.40;99.90;;;;;;4140499;28;20034;-67
2024/02/11 03:35:57;;;;;;;7.65;4.63;;;11.40;99.90;;;;;;4134592;28;20371;-68
2024/02/11 03:37:57;;;;;;;5.82;3.72;;;11.40;99.90;;;;;;4140257;28;20038;-67
2024/02/11 03:39:58;;;;;;;7.28;4.32;;;11.40;99.90;;;;;;4142530;28;20045;-67
2024/02/11 03:41:58;;;;;;;7.20;4.22;;;11.30;99.90;;;;;;4141757;28;20041;-67
2024/02/11 03:44:00;;;;;;;8.88;4.40;;;11.30;99.90;;;;;;4140970;28;20034;-68
2024/02/11 03:46:02;;;;;;;5.33;4.30;;;11.30;99.90;;;;;;4141445;28;20498;-67
2024/02/11 03:48:03;;;;;;;8.65;4.80;;;11.30;99.90;;;;;;4143821;28;20115;-67
2024/02/11 03:50:04;;;;;;;6.22;3.72;;;11.30;99.90;;;;;;4145112;28;20055;-65
2024/02/11 03:52:05;;;;;;;5.00;3.67;;;11.20;99.90;;;;;;4140790;28;20380;-65
2024/02/11 03:54:06;;;;;;;7.15;3.83;;;11.20;99.90;;;;;;4144137;28;20045;-65
2024/02/11 03:56:06;;;;;;;7.85;4.28;;;11.20;99.90;;;;;;4143446;28;20042;-65
2024/02/11 03:58:07;;;;;;;6.70;4.28;;;11.20;99.90;;;;;;4143448;28;20034;-65
2024/02/11 04:00:24;;;;;;;6.35;4.35;;;11.10;99.90;;;;;;4142180;28;20034;-66
2024/02/11 04:02:25;;;;;;;6.88;4.28;;;11.20;99.90;;;;;;4142189;28;20029;-65
2024/02/11 04:04:26;;;;;;;7.28;4.20;;;11.20;99.90;;;;;;4142954;28;20504;-65
2024/02/11 04:06:27;;;;;;;7.38;4.57;;;11.10;99.90;;;;;;4142870;28;20494;-65
2024/02/11 04:08:29;;;;;;;6.05;4.07;;;11.20;99.90;;;;;;4142818;28;20513;-65
2024/02/11 04:10:36;;;;;;;5.75;3.85;;;11.20;99.90;;;;;;4143193;28;20042;-65
2024/02/11 04:12:36;;;;;;;6.30;3.90;;;11.20;99.90;;;;;;4143868;28;20425;-65
2024/02/11 04:14:40;;;;;;;7.15;4.13;;;11.20;99.90;;;;;;4144087;28;20034;-65
2024/02/11 04:16:44;;;;;;;6.88;4.05;;;11.20;99.90;;;;;;4140869;28;20116;-65
2024/02/11 04:18:47;;;;;;;5.72;4.00;;;11.20;99.90;;;;;;4143742;28;20402;-66
2024/02/11 04:20:48;;;;;;;9.15;4.43;;;11.20;99.90;;;;;;4141851;28;20117;-65
2024/02/11 04:22:49;;;;;;;6.65;3.88;;;11.20;99.90;;;;;;4144782;28;20033;-65
2024/02/11 04:24:49;;;;;;;5.38;3.70;;;11.20;99.90;;;;;;4144638;28;20041;-65
2024/02/11 04:26:53;;;;;;;6.30;4.40;;;11.20;99.90;;;;;;4146287;28;20507;-65
2024/02/11 04:28:53;;;;;;;6.95;4.28;;;11.30;99.90;;;;;;4143209;28;20403;-70
2024/02/11 04:30:55;;;;;;;6.13;4.45;;;11.30;99.90;;;;;;4141183;28;20117;-71
2024/02/11 04:32:59;;;;;;;7.07;4.63;;;11.30;99.90;;;;;;4121709;28;20446;-70
2024/02/11 04:34:59;;;;;;;5.63;3.95;;;11.30;99.90;;;;;;4145916;28;20034;-70
2024/02/11 04:37:01;;;;;;;7.65;4.15;;;11.20;99.90;;;;;;4143534;28;20026;-71
2024/02/11 04:39:07;;;;;;;7.97;4.65;;;11.20;99.90;;;;;;4141551;28;20042;-71
2024/02/11 04:41:07;;;;;;;5.75;4.05;;;11.20;99.90;;;;;;4142233;28;20043;-71
2024/02/11 04:43:08;;;;;;;6.93;4.07;;;11.20;99.90;;;;;;4141803;28;20378;-70
2024/02/11 04:45:09;;;;;;;8.15;4.88;;;11.20;99.90;;;;;;4144799;28;20206;-72
2024/02/11 04:47:09;;;;;;;6.25;4.53;;;11.30;99.90;;;;;;4142987;28;20717;-71
2024/02/11 04:49:10;;;;;;;7.95;4.60;;;11.20;99.90;;;;;;4141982;28;20042;-71
2024/02/11 04:51:14;;;;;;;7.80;4.63;;;11.20;99.90;;;;;;4141248;28;20120;-71
2024/02/11 04:53:18;;;;;;;6.93;4.25;;;11.20;99.90;;;;;;4140270;28;20125;-70
2024/02/11 04:55:18;;;;;;;6.50;4.15;;;11.30;99.90;;;;;;4140048;28;20042;-71
2024/02/11 04:57:19;;;;;;;8.40;4.85;;;11.30;99.90;;;;;;4142663;28;20368;-70
2024/02/11 04:59:22;;;;;;;9.55;4.68;;;11.20;99.90;;;;;;4141748;28;20039;-67
2024/02/11 05:01:23;;;;;;;6.55;4.43;;;11.30;99.90;;;;;;4144022;28;20037;-67
2024/02/11 05:03:24;;;;;;;6.10;4.13;;;11.20;99.90;;;;;;4142418;28;20482;-67
2024/02/11 05:05:29;;;;;;;9.35;4.85;;;11.20;99.90;;;;;;4140190;28;20157;-67
2024/02/11 05:07:32;;;;;;;6.97;4.45;;;11.20;99.90;;;;;;4142612;28;20030;-67
2024/02/11 05:09:37;;;;;;;7.20;4.47;;;11.20;99.90;;;;;;4143383;28;20839;-67
2024/02/11 05:11:37;;;;;;;6.50;4.20;;;11.20;99.90;;;;;;4146056;28;20030;-67
2024/02/11 05:13:38;;;;;;;7.40;5.22;;;11.30;99.90;;;;;;4142892;28;20068;-67
2024/02/11 05:15:43;;;;;;;6.82;4.75;;;11.20;99.90;;;;;;4145084;28;20050;-67
2024/02/11 05:17:46;;;;;;;7.47;4.80;;;11.30;99.90;;;;;;4142741;28;20034;-67
2024/02/11 05:19:47;;;;;;;5.45;4.10;;;11.20;99.90;;;;;;4141639;28;20112;-68
2024/02/11 05:21:48;;;;;;;8.15;4.43;;;11.20;99.90;;;;;;4142213;28;20466;-67
2024/02/11 05:23:48;;;;;;;7.05;4.60;;;11.30;99.90;;;;;;4143870;28;20034;-67
2024/02/11 05:25:50;;;;;;;6.60;4.93;;;11.20;99.90;;;;;;4142281;28;20042;-67
2024/02/11 05:27:56;;;;;;;6.53;4.63;;;11.20;99.90;;;;;;4141789;28;20045;-67
2024/02/11 05:29:57;;;;;;;7.45;5.18;;;11.20;99.90;;;;;;4144585;28;20054;-67
2024/02/11 05:31:59;;;;;;;8.02;4.95;;;11.20;99.90;;;;;;4140409;28;20478;-67
2024/02/11 05:34:00;;;;;;;7.63;4.95;;;11.20;99.90;;;;;;4143416;28;20447;-67
2024/02/11 05:36:07;;;;;;;7.82;4.97;;;11.20;99.90;;;;;;4142815;28;20398;-67
2024/02/11 05:38:08;;;;;;;7.90;4.95;;;11.20;99.90;;;;;;4139223;28;20042;-72
2024/02/11 05:40:10;;;;;;;7.00;4.93;;;11.20;99.90;;;;;;4137467;28;20042;-63
2024/02/11 05:42:11;;;;;;;8.80;5.40;;;11.20;99.90;;;;;;4142032;28;20117;-61
2024/02/11 05:44:12;;;;;;;9.43;5.10;;;11.20;99.90;;;;;;4143787;28;20073;-61
2024/02/11 05:46:12;;;;;;;7.35;5.05;;;11.20;99.90;;;;;;4141717;28;20034;-61
2024/02/11 05:48:13;;;;;;;8.93;5.25;;;11.20;99.90;;;;;;4144343;28;20049;-61
2024/02/11 05:50:14;;;;;;;8.00;5.43;;;11.20;99.90;;;;;;4142289;28;20077;-61
2024/02/11 05:52:14;;;;;;;11.18;5.75;;;11.20;99.90;;;;;;4143088;28;20030;-66
2024/02/11 05:54:16;;;;;;;6.63;5.07;;;11.20;99.90;;;;;;4146199;28;20033;-62
2024/02/11 05:56:17;;;;;;;7.33;4.50;;;11.10;99.90;;;;;;4141239;28;20049;-62
2024/02/11 05:58:18;;;;;;;7.45;4.82;;;11.20;99.90;;;;;;4144476;28;20502;-61
2024/02/11 06:00:31;;;;;;;7.07;5.05;;;11.20;99.90;;;;;;4142437;28;20038;-62
2024/02/11 06:02:31;;;;;;;6.38;4.60;;;11.10;99.90;;;;;;4145474;28;20103;-61
2024/02/11 06:04:32;;;;;;;4.13;3.28;;;11.00;99.90;;;;;;4142658;28;20061;-61
2024/02/11 06:06:33;;;;;;;2.97;2.40;;;10.90;99.90;;;;;;4143499;28;20038;-61
2024/02/11 06:08:35;;;;;;;3.70;2.58;;;10.90;99.90;;;;;;4144965;28;20068;-69
2024/02/11 06:10:36;;;;;;;2.72;1.98;;;10.80;99.90;;;;;;4146133;28;20119;-69
2024/02/11 06:12:38;;;;;;;2.10;1.80;;;10.80;99.90;;;;;;4145471;28;20471;-70
2024/02/11 06:14:39;;;;;;;2.35;1.88;;;10.80;99.90;;;;;;4146614;28;20560;-70
2024/02/11 06:16:39;;;;;;;2.75;1.60;;;10.70;99.90;;;;;;4148284;28;20471;-70
2024/02/11 06:18:40;;;;;;;1.10;0.98;;;10.70;99.90;;;;;;4143680;28;20034;-70
2024/02/11 06:20:41;;;;;;;1.88;1.10;;;10.70;99.90;;;;;;4145085;28;20038;-69
2024/02/11 06:22:42;;;;;;;0.60;0.60;;;10.60;99.90;;;;;;4143523;28;20030;-70
2024/02/11 06:24:43;;;;;;;0.70;0.70;;;10.50;99.90;;;;;;4144934;28;20033;-70
2024/02/11 06:26:43;;;;;;;0.80;0.50;;;10.50;99.90;;;;;;4142455;28;20145;-70
2024/02/11 06:28:44;;;;;;;1.23;0.90;;;10.50;99.90;;;;;;4141383;28;20053;-70
2024/02/11 06:30:44;;;;;;;0.70;0.70;;;10.50;99.90;;;;;;4143067;28;20053;-71
2024/02/11 06:32:50;;;;;;;1.00;0.70;;;10.40;99.90;;;;;;4144348;28;20034;-69
2024/02/11 06:34:52;;;;;;;0.50;0.45;;;10.40;99.90;;;;;;4144912;28;20437;-71
2024/02/11 06:36:53;;;;;;;1.05;0.88;;;10.40;99.90;;;;;;4143887;28;20034;-70
2024/02/11 06:38:58;;;;;;;1.30;0.80;;;10.30;99.90;;;;;;4142211;28;20068;-70
2024/02/11 06:40:59;;;;;;;1.10;0.68;;;10.30;99.90;;;;;;4146140;28;20056;-71
2024/02/11 06:43:00;;;;;;;1.33;0.95;;;10.30;99.90;;;;;;4148734;28;20084;-70
2024/02/11 06:45:02;;;;;;;3.53;1.35;;;10.20;99.90;;;;;;4143139;28;20054;-71
2024/02/11 06:47:02;;;;;;;2.45;1.40;;;10.20;99.90;;;;;;4141148;28;20038;-71
2024/02/11 06:49:04;;;;;;;1.88;1.50;;;10.10;99.90;;;;;;4142737;28;20050;-67
2024/02/11 06:51:04;;;;;;;2.30;1.60;;;10.10;99.90;;;;;;4142059;28;20140;-67
2024/02/11 06:53:07;;;;;;;3.30;1.67;;;10.10;99.90;;;;;;4146876;28;20034;-67
2024/02/11 06:55:10;;;;;;;;;;;10.10;99.90;;;;;;4145000;28;20030;-67
2024/02/11 06:57:11;;;;;;;2.75;1.55;;;10.00;99.90;;;;;;4144863;28;19972;-68
2024/02/11 06:59:12;;;;;;;2.85;1.80;;;10.00;99.90;;;;;;4143787;28;20553;-67
2024/02/11 07:01:13;;;;;;;3.72;1.85;;;10.00;99.90;;;;;;4143717;28;20041;-67
2024/02/11 07:03:14;;;;;;;4.85;2.03;;;10.00;99.90;;;;;;4145803;28;20501;-67
2024/02/11 07:05:15;;;;;;;7.82;2.10;;;9.90;99.90;;;;;;4139509;28;20050;-67
2024/02/11 07:07:16;;;;;;;5.50;2.17;;;10.00;99.90;;;;;;4138118;28;20406;-68
2024/02/11 07:09:18;;;;;;;3.17;1.65;;;9.90;99.90;;;;;;4142322;28;20502;-68
2024/02/11 07:11:19;;;;;;;5.83;2.20;;;9.90;99.90;;;;;;4142754;28;20038;-68
2024/02/11 07:13:19;;;;;;;4.95;2.00;;;9.90;99.90;;;;;;4140466;28;20045;-68
2024/02/11 07:15:20;;;;;;;7.53;2.55;;;9.90;99.90;;;;;;4141307;28;20034;-67
2024/02/11 07:17:21;;;;;;;5.43;1.98;;;9.90;99.90;;;;;;4143939;28;20419;-70
2024/02/11 07:19:24;;;;;;;4.40;1.70;;;9.80;99.90;;;;;;4143114;28;20479;-70
2024/02/11 07:21:25;;;;;;;5.45;2.30;;;9.80;99.90;;;;;;4143177;28;20120;-71
2024/02/11 07:23:26;;;;;;;6.65;2.63;;;9.80;99.90;;;;;;4144028;28;20465;-71
2024/02/11 07:25:27;;;;;;;4.55;1.67;;;9.80;99.90;;;;;;4146720;28;20036;-70
2024/02/11 07:27:28;;;;;;;5.63;2.08;;;9.90;99.90;;;;;;4145787;28;20037;-71
2024/02/11 07:29:29;;;;;;;5.75;2.40;;;9.80;99.90;;;;;;4145899;28;20470;-70
2024/02/11 07:31:33;;;;;;;6.40;2.15;;;9.80;99.90;;;;;;4146387;28;20068;-71
2024/02/11 07:33:34;;;;;;;10.38;2.83;;;9.80;99.90;;;;;;4147738;28;20069;-71
2024/02/11 07:35:34;;;;;;;6.85;2.40;;;9.90;99.90;;;;;;4137535;28;20031;-70
2024/02/11 07:37:35;;;;;;;4.95;2.17;;;9.90;99.90;;;;;;4132879;28;20034;-71
2024/02/11 07:39:36;;;;;;;6.00;2.58;;;9.90;99.90;;;;;;4143371;28;20096;-71
2024/02/11 07:41:37;;;;;;;9.25;3.03;;;9.80;99.90;;;;;;4147099;28;20088;-71
2024/02/11 07:43:38;;;;;;;8.43;2.67;;;9.80;99.90;;;;;;4144034;28;20470;-70
2024/02/11 07:45:42;;;;;;;7.18;2.83;;;9.80;99.90;;;;;;4140073;28;20037;-70
2024/02/11 07:47:46;;;;;;;6.53;2.83;;;9.80;99.90;;;;;;4145256;28;20398;-71
2024/02/11 07:49:46;;;;;;;7.32;2.95;;;9.80;99.90;;;;;;4145099;28;20426;-69
2024/02/11 07:51:50;;;;;;;8.63;3.55;;;9.80;99.90;;;;;;4138978;28;20109;-69
2024/02/11 07:53:51;;;;;;;9.05;3.58;;;9.80;99.90;;;;;;4147542;28;20030;-70
2024/02/11 07:55:52;;;;;;;11.85;3.97;;;9.80;99.90;;;;;;4142551;28;20050;-68
2024/02/11 07:57:53;;;;;;;12.18;3.80;;;9.80;99.90;;;;;;4146668;28;20053;-67
2024/02/11 07:59:53;;;;;;;12.02;4.53;;;9.80;99.90;;;;;;4146268;28;20033;-60
2024/02/11 08:01:55;;;;;;;10.45;4.50;;;9.80;99.90;;;;;;4144887;28;20548;-60
2024/02/11 08:03:55;;;;;;;10.77;3.80;;;9.80;99.90;;;;;;4146622;28;20041;-60
2024/02/11 08:05:56;;;;;;;11.80;4.15;;;9.80;99.90;;;;;;4148034;28;20041;-60
2024/02/11 08:07:57;;;;;;;9.82;3.95;;;9.80;99.90;;;;;;4146891;28;20053;-60
2024/02/11 08:09:57;;;;;;;9.35;4.18;;;9.80;99.90;;;;;;4151376;28;20498;-60
2024/02/11 08:11:58;;;;;;;12.48;4.72;;;9.80;99.90;;;;;;4145103;28;20096;-60
2024/02/11 08:13:59;;;;;;;12.70;4.40;;;9.80;99.90;;;;;;4142175;28;20044;-60
2024/02/11 08:16:01;;;;;;;11.50;4.95;;;9.80;99.90;;;;;;4142173;28;20398;-60
2024/02/11 08:18:06;;;;;;;13.88;4.13;;;9.80;99.90;;;;;;4144062;28;20038;-60
2024/02/11 08:20:07;;;;;;;13.43;4.47;;;9.80;99.90;;;;;;4145098;28;20521;-61
2024/02/11 08:22:08;;;;;;;9.43;3.72;;;9.80;99.90;;;;;;4143778;28;20048;-60
2024/02/11 08:24:09;;;;;;;10.65;3.85;;;9.80;99.90;;;;;;4146813;28;20038;-60
2024/02/11 08:26:10;;;;;;;10.98;4.22;;;9.80;99.90;;;;;;4142831;28;20034;-60
2024/02/11 08:28:11;;;;;;;13.50;4.00;;;9.70;99.90;;;;;;4143696;28;20060;-69
2024/02/11 08:30:12;;;;;;;11.23;4.20;;;9.80;99.90;;;;;;4141207;28;20044;-68
2024/02/11 08:32:12;;;;;;;10.02;4.53;;;9.80;99.90;;;;;;4147275;28;20111;-69
2024/02/11 08:34:13;;;;;;;8.35;3.17;;;9.80;99.90;;;;;;4144292;28;20037;-70
2024/02/11 08:36:14;;;;;;;13.00;3.13;;;9.80;99.90;;;;;;4146435;28;20029;-70
2024/02/11 08:38:15;;;;;;;13.55;4.18;;;9.90;99.90;;;;;;4143447;28;20395;-70
2024/02/11 08:40:16;;;;;;;7.00;3.53;;;9.80;99.90;;;;;;4141116;28;20096;-69
2024/02/11 08:42:17;;;;;;;9.57;3.72;;;9.80;99.90;;;;;;4141724;28;20037;-68
2024/02/11 08:44:18;;;;;;;11.32;3.92;;;9.90;99.90;;;;;;4142443;28;20030;-69
2024/02/11 08:46:19;;;;;;;8.13;3.83;;;9.90;99.90;;;;;;4140285;28;20034;-68
2024/02/11 08:48:20;;;;;;;7.88;3.42;;;9.90;99.90;;;;;;4142078;28;21303;-69
2024/02/11 08:50:20;;;;;;;11.77;4.40;;;9.90;99.90;;;;;;4141473;28;20057;-69
2024/02/11 08:52:21;;;;;;;9.23;3.95;;;9.90;99.90;;;;;;4142760;28;20034;-69
2024/02/11 08:54:22;;;;;;;6.20;3.00;;;9.90;99.90;;;;;;4146994;28;20033;-69
2024/02/11 08:56:22;;;;;;;9.20;3.65;;;9.90;99.90;;;;;;4142148;28;20052;-69
2024/02/11 08:58:24;;;;;;;6.25;3.38;;;10.00;99.90;;;;;;4143254;28;20030;-69
2024/02/11 09:00:25;;;;;;;7.90;3.47;;;10.00;99.90;;;;;;4142042;28;20050;-69
2024/02/11 09:02:26;;;;;;;8.63;3.13;;;10.00;99.90;;;;;;4142938;28;20033;-69
2024/02/11 09:04:28;;;;;;;8.13;3.75;;;10.00;99.90;;;;;;4143746;28;20104;-69
2024/02/11 09:06:28;;;;;;;11.23;4.35;;;10.00;99.90;;;;;;4141962;28;20037;-70
2024/02/11 09:08:29;;;;;;;7.45;3.50;;;10.00;99.90;;;;;;4142903;28;20504;-60
2024/02/11 09:10:30;;;;;;;8.27;3.35;;;10.10;99.90;;;;;;4136001;28;20453;-60
2024/02/11 09:12:31;;;;;;;7.55;4.10;;;10.10;99.90;;;;;;4139405;28;20127;-60
2024/02/11 09:14:32;;;;;;;7.60;3.88;;;10.00;99.90;;;;;;4139817;28;20049;-60
2024/02/11 09:16:32;;;;;;;9.50;4.28;;;10.10;99.90;;;;;;4136956;28;20046;-60
2024/02/11 09:18:33;;;;;;;9.85;4.25;;;10.10;99.90;;;;;;4140379;28;20556;-60
2024/02/11 09:20:36;;;;;;;7.47;4.30;;;10.10;99.90;;;;;;4137888;28;20473;-59
2024/02/11 09:22:37;;;;;;;7.40;3.72;;;10.10;99.90;;;;;;4141133;28;20469;-60
2024/02/11 09:24:41;;;;;;;10.77;4.28;;;10.10;99.90;;;;;;4139609;28;20046;-60
2024/02/11 09:26:41;;;;;;;7.75;4.13;;;10.10;99.90;;;;;;4138199;28;20542;-60
2024/02/11 09:28:42;;;;;;;6.47;3.85;;;10.10;99.90;;;;;;4130058;28;20058;-60
2024/02/11 09:30:43;;;;;;;9.48;3.60;;;10.10;99.90;;;;;;4132024;28;20887;-60
2024/02/11 09:32:44;;;;;;;7.57;3.90;;;10.10;99.90;;;;;;4138894;28;20272;-60
2024/02/11 09:34:47;;;;;;;10.57;4.50;;;10.10;99.90;;;;;;4139098;28;20050;-60
2024/02/11 09:36:48;;;;;;;11.38;4.00;;;10.20;99.90;;;;;;4138098;28;20091;-60
2024/02/11 09:38:49;;;;;;;9.13;4.05;;;10.20;99.90;;;;;;4138844;28;20682;-61
2024/02/11 09:40:50;;;;;;;8.63;3.58;;;10.20;99.90;;;;;;4137706;28;20042;-63
2024/02/11 09:42:51;;;;;;;7.45;3.80;;;10.20;99.90;;;;;;4141883;28;20091;-60
2024/02/11 09:44:53;;;;;;;11.15;4.47;;;10.20;99.90;;;;;;4143471;28;20474;-60
2024/02/11 09:46:56;;;;;;;12.35;4.15;;;10.20;99.90;;;;;;4141182;28;20046;-60
2024/02/11 09:48:58;;;;;;;6.40;3.70;;;10.10;99.90;;;;;;4142925;28;20037;-60
2024/02/11 09:51:01;;;;;;;10.52;4.30;;;10.20;99.90;;;;;;4142888;28;20057;-60
2024/02/11 09:53:03;;;;;;;6.80;3.80;;;10.20;99.90;;;;;;4144715;28;20038;-60
2024/02/11 09:55:06;;;;;;;8.45;4.25;;;10.20;99.90;;;;;;4141793;28;20034;-61
2024/02/11 09:57:06;;;;;;;10.82;4.57;;;10.20;99.90;;;;;;4142863;28;20052;-60
2024/02/11 09:59:09;;;;;;;8.63;3.65;;;10.20;99.90;;;;;;4139529;28;20049;-60
2024/02/11 10:01:12;;;;;;;7.47;3.78;;;10.20;99.90;;;;;;4140539;28;20041;-60
2024/02/11 10:03:17;;;;;;;9.35;4.45;;;10.20;99.90;;;;;;4143894;28;20033;-60
2024/02/11 10:05:22;;;;;;;10.70;4.30;;;10.20;99.90;;;;;;4141954;28;20046;-60
2024/02/11 10:07:23;;;;;;;9.00;3.70;;;10.20;99.90;;;;;;4141621;28;20042;-60
2024/02/11 10:09:26;;;;;;;11.45;4.68;;;10.30;99.90;;;;;;4141010;28;20037;-60
2024/02/11 10:11:30;;;;;;;9.07;4.40;;;10.30;99.90;;;;;;4143720;28;20038;-60
2024/02/11 10:13:32;;;;;;;6.82;4.05;;;10.30;99.90;;;;;;4140278;28;20070;-60
2024/02/11 10:15:35;;;;;;;8.73;4.28;;;10.30;99.90;;;;;;4139790;28;20041;-60
2024/02/11 10:17:37;;;;;;;9.52;4.20;;;10.30;99.90;;;;;;4139004;28;20506;-60
2024/02/11 10:19:37;;;;;;;11.98;4.50;;;10.30;99.90;;;;;;4146225;28;20099;-71
2024/02/11 10:21:38;;;;;;;8.80;4.97;;;10.30;99.90;;;;;;4142561;28;20498;-71
2024/02/11 10:23:39;;;;;;;10.82;4.70;;;10.30;99.90;;;;;;4140287;28;20046;-71
2024/02/11 10:25:44;;;;;;;8.25;4.28;;;10.30;99.90;;;;;;4139740;28;22128;-71
2024/02/11 10:27:44;;;;;;;9.60;4.60;;;10.30;99.90;;;;;;4140913;28;20498;-70
2024/02/11 10:29:46;;;;;;;8.13;4.05;;;10.40;99.90;;;;;;4140866;28;20083;-71
2024/02/11 10:31:47;;;;;;;11.40;4.93;;;10.40;99.90;;;;;;4141372;28;20097;-70
2024/02/11 10:33:47;;;;;;;10.82;5.43;;;10.50;99.90;;;;;;4142279;28;20049;-70